Time;durP1;ratioP1;P1;durP2;ratioP2;P2;SDS_P1;SDS_P2;PMS_P1;PMS_P2;Temp;Humidity;BMP_temperature;BMP_pressure;BME280_temperature;BME280_humidity;BME280_pressure;Samples;Min_cycle;Max_cycle;Signal;HPM_P1;HPM_P2
2021/06/15 00:02:11;;;;;;;0.40;0.20;;;;;;;16.47;90.30;100409.38;5065279;28;20453;-51
2021/06/15 00:04:38;;;;;;;4.00;1.50;;;;;;;16.68;89.78;100418.16;5059098;28;20883;-51
2021/06/15 00:07:05;;;;;;;0.50;0.20;;;;;;;16.72;89.76;100414.41;5045018;28;20476;-51
2021/06/15 00:09:31;;;;;;;0.40;0.20;;;;;;;16.49;90.53;100410.16;5067943;28;20486;-51
2021/06/15 00:11:58;;;;;;;0.40;0.20;;;;;;;16.57;90.96;100421.34;5064855;28;20499;-51
2021/06/15 00:14:25;;;;;;;0.40;0.20;;;;;;;16.57;90.76;100416.00;5071791;28;20566;-51
2021/06/15 00:16:51;;;;;;;0.50;0.30;;;;;;;16.62;89.65;100425.66;5055374;28;20439;-51
2021/06/15 00:19:18;;;;;;;0.60;0.60;;;;;;;16.84;89.25;100418.22;5071478;28;20446;-51
2021/06/15 00:21:45;;;;;;;2.17;2.10;;;;;;;16.76;89.73;100418.66;5073707;28;20454;-50
2021/06/15 00:24:12;;;;;;;0.40;0.20;;;;;;;16.83;88.67;100424.56;5054580;28;20472;-51
2021/06/15 00:26:38;;;;;;;0.40;0.30;;;;;;;16.72;89.08;100427.81;5055142;28;20488;-51
2021/06/15 00:29:05;;;;;;;0.40;0.20;;;;;;;16.48;91.28;100416.47;5070903;28;20447;-51
2021/06/15 00:31:34;;;;;;;0.40;0.20;;;;;;;16.41;92.24;100414.19;5054555;28;20472;-51
2021/06/15 00:34:01;;;;;;;0.60;0.47;;;;;;;16.39;92.62;100418.75;5043868;28;20524;-51
2021/06/15 00:36:28;;;;;;;0.50;0.30;;;;;;;16.48;91.67;100413.81;5064956;28;20451;-51
2021/06/15 00:38:54;;;;;;;0.40;0.20;;;;;;;16.43;91.59;100417.66;5074332;28;20449;-51
2021/06/15 00:41:21;;;;;;;0.40;0.20;;;;;;;16.35;91.89;100418.06;5073879;28;20446;-50
2021/06/15 00:43:48;;;;;;;0.40;0.20;;;;;;;16.07;93.37;100423.91;5060269;28;20997;-51
2021/06/15 00:46:14;;;;;;;0.40;0.20;;;;;;;16.66;90.98;100425.41;5073002;28;20503;-51
2021/06/15 00:48:42;;;;;;;0.40;0.20;;;;;;;16.13;92.31;100426.28;5073966;28;20484;-51
2021/06/15 00:51:09;;;;;;;0.40;0.20;;;;;;;15.99;94.27;100423.41;5073850;28;20521;-51
2021/06/15 00:53:37;;;;;;;0.40;0.20;;;;;;;15.94;94.83;100418.28;5045188;28;20531;-51
2021/06/15 00:56:04;;;;;;;0.83;0.83;;;;;;;15.92;94.22;100417.50;5073648;28;20445;-51
2021/06/15 00:58:32;;;;;;;0.40;0.20;;;;;;;16.02;93.52;100412.53;5050295;28;20459;-50
2021/06/15 01:00:58;;;;;;;0.40;0.20;;;;;;;15.83;95.12;100425.09;5058355;28;20442;-51
2021/06/15 01:03:27;;;;;;;0.40;0.20;;;;;;;16.03;94.21;100422.31;5073575;28;20527;-51
2021/06/15 01:05:55;;;;;;;0.40;0.20;;;;;;;15.94;94.24;100420.09;5065167;28;20938;-50
2021/06/15 01:08:34;;;;;;;0.40;0.20;;;;;;;16.02;93.82;100415.22;5061538;28;20460;-51
2021/06/15 01:11:40;;;;;;;0.57;0.57;;;;;;;16.16;93.08;100419.91;5051432;28;20490;-51
2021/06/15 01:14:47;;;;;;;0.43;0.27;;;;;;;15.71;94.45;100418.50;5073610;28;20473;-51
2021/06/15 01:17:22;;;;;;;2.53;2.43;;;;;;;15.50;97.20;100417.69;5038231;28;20980;-51
2021/06/15 01:20:03;;;;;;;0.50;0.30;;;;;;;15.57;96.94;100411.09;5073215;28;21032;-51
2021/06/15 01:22:44;;;;;;;0.40;0.20;;;;;;;15.62;96.49;100406.44;5046422;28;20481;-50
2021/06/15 01:25:48;;;;;;;0.40;0.20;;;;;;;15.57;96.13;100408.41;5048491;28;20969;-51
2021/06/15 01:28:27;;;;;;;0.40;0.20;;;;;;;15.71;95.31;100410.47;5001756;28;20532;-51
2021/06/15 01:31:16;;;;;;;0.40;0.20;;;;;;;15.58;95.90;100412.81;5047301;28;20885;-51
2021/06/15 01:33:47;;;;;;;0.40;0.20;;;;;;;15.56;96.01;100406.69;5060832;28;20472;-51
2021/06/15 01:36:18;;;;;;;0.77;0.77;;;;;;;15.25;98.28;100417.09;5072497;28;20466;-51
2021/06/15 01:38:54;;;;;;;0.40;0.20;;;;;;;15.36;98.39;100420.16;5072867;28;20446;-51
2021/06/15 01:42:13;;;;;;;0.50;0.40;;;;;;;15.27;97.79;100413.41;5072960;28;20504;-51
2021/06/15 01:44:44;;;;;;;0.40;0.20;;;;;;;15.34;97.13;100405.94;5050487;28;20478;-51
2021/06/15 01:47:12;;;;;;;0.50;0.47;;;;;;;15.26;97.36;100408.13;5073405;28;20450;-51
2021/06/15 01:50:04;;;;;;;0.40;0.20;;;;;;;15.07;98.49;100406.25;5058412;28;20491;-50
2021/06/15 01:52:35;;;;;;;0.40;0.20;;;;;;;15.25;98.41;100406.38;5053612;28;20442;-50
2021/06/15 01:55:08;;;;;;;0.40;0.20;;;;;;;15.10;98.98;100406.13;5073115;28;20519;-51
2021/06/15 01:57:37;;;;;;;0.40;0.20;;;;;;;15.15;98.22;100410.41;5060261;28;20477;-51
2021/06/15 02:00:13;;;;;;;0.40;0.20;;;;;;;15.10;99.11;100402.59;5044933;28;20441;-51
2021/06/15 02:02:42;;;;;;;0.40;0.20;;;;;;;15.17;99.71;100408.53;5054614;28;20821;-51
2021/06/15 02:05:11;;;;;;;0.83;0.83;;;;;;;14.97;98.73;100402.28;5062424;28;20570;-50
2021/06/15 02:07:43;;;;;;;0.40;0.20;;;;;;;15.04;99.78;100393.00;5040151;28;20459;-51
2021/06/15 02:10:13;;;;;;;0.40;0.20;;;;;;;15.19;97.04;100407.50;5063791;28;20509;-50
2021/06/15 02:12:44;;;;;;;0.40;0.20;;;;;;;15.10;98.56;100410.63;5038961;28;20876;-51
2021/06/15 02:15:14;;;;;;;2.00;2.00;;;;;;;14.88;99.21;100402.69;5062158;28;20886;-51
2021/06/15 02:17:44;;;;;;;0.40;0.20;;;;;;;14.93;100.00;100411.34;5045551;28;20591;-54
2021/06/15 02:20:13;;;;;;;0.40;0.30;;;;;;;14.98;99.37;100395.97;5060966;28;20431;-51
2021/06/15 02:22:46;;;;;;;2.40;0.83;;;;;;;14.95;100.00;100401.47;5070028;28;20473;-53
2021/06/15 02:25:19;;;;;;;0.40;0.30;;;;;;;15.31;97.86;100398.03;5072179;28;20462;-51
2021/06/15 02:27:46;;;;;;;0.40;0.20;;;;;;;15.05;98.07;100401.91;5039655;28;20524;-51
2021/06/15 02:30:15;;;;;;;0.40;0.20;;;;;;;14.86;98.74;100406.34;5065917;28;20489;-50
2021/06/15 02:32:44;;;;;;;0.50;0.30;;;;;;;15.04;97.37;100411.75;5053079;28;20501;-51
2021/06/15 02:35:12;;;;;;;0.40;0.30;;;;;;;14.86;98.72;100412.59;5057342;28;20493;-51
2021/06/15 02:37:50;;;;;;;0.40;0.20;;;;;;;14.93;98.57;100408.69;5055548;28;20448;-51
2021/06/15 02:40:18;;;;;;;0.40;0.20;;;;;;;14.96;98.11;100410.38;5038853;28;20433;-51
2021/06/15 02:42:46;;;;;;;0.40;0.20;;;;;;;14.60;98.96;100405.69;5071744;28;20942;-51
2021/06/15 02:45:16;;;;;;;0.50;0.37;;;;;;;15.03;97.25;100404.66;5052842;22;20529;-54
2021/06/15 02:47:47;;;;;;;0.90;0.90;;;;;;;15.06;97.17;100399.16;5040075;28;20482;-53
2021/06/15 02:50:17;;;;;;;0.40;0.27;;;;;;;15.08;97.26;100402.66;5031285;28;20503;-53
2021/06/15 02:52:56;;;;;;;0.50;0.50;;;;;;;14.95;98.00;100396.13;5031348;28;20455;-53
2021/06/15 02:55:37;;;;;;;0.40;0.20;;;;;;;15.00;98.17;100398.59;5031544;28;20463;-53
2021/06/15 02:58:05;;;;;;;0.40;0.20;;;;;;;14.93;98.15;100397.09;5030990;28;20487;-53
2021/06/15 03:00:33;;;;;;;0.50;0.40;;;;;;;14.74;99.31;100392.56;5031204;28;20444;-53
2021/06/15 03:03:03;;;;;;;0.40;0.20;;;;;;;14.78;99.08;100396.84;5031494;28;20513;-53
2021/06/15 03:05:33;;;;;;;0.40;0.20;;;;;;;14.85;98.38;100392.13;5029356;28;20831;-53
2021/06/15 03:08:00;;;;;;;0.40;0.20;;;;;;;15.11;97.63;100390.94;5031466;28;20521;-53
2021/06/15 03:10:28;;;;;;;0.40;0.20;;;;;;;14.76;99.73;100396.06;5020137;28;20484;-53
2021/06/15 03:13:03;;;;;;;0.40;0.20;;;;;;;14.69;99.87;100397.28;5028997;28;20456;-53
2021/06/15 03:15:45;;;;;;;0.40;0.20;;;;;;;14.71;99.61;100394.53;5031064;28;20471;-53
2021/06/15 03:18:40;;;;;;;0.40;0.30;;;;;;;14.68;98.67;100400.88;5008192;28;20505;-53
2021/06/15 03:21:10;;;;;;;0.40;0.20;;;;;;;14.97;97.48;100406.75;5026419;28;20452;-53
2021/06/15 03:23:41;;;;;;;0.40;0.20;;;;;;;14.60;99.13;100413.72;5031195;28;20880;-53
2021/06/15 03:26:13;;;;;;;0.40;0.20;;;;;;;14.69;99.81;100412.47;5046073;28;20789;-54
2021/06/15 03:28:43;;;;;;;0.50;0.20;;;;;;;14.76;99.52;100412.09;5030659;28;20505;-53
2021/06/15 03:31:13;;;;;;;0.40;0.20;;;;;;;14.55;100.00;100413.06;5030926;28;20888;-53
2021/06/15 03:33:41;;;;;;;0.50;0.40;;;;;;;14.79;100.00;100409.28;5035453;28;20501;-53
2021/06/15 03:36:10;;;;;;;0.40;0.20;;;;;;;14.89;99.91;100414.25;5025500;28;20451;-53
2021/06/15 03:38:38;;;;;;;0.40;0.20;;;;;;;14.72;100.00;100417.66;5034404;28;20451;-54
2021/06/15 03:41:08;;;;;;;0.60;0.60;;;;;;;14.64;100.00;100418.00;5034776;28;20448;-53
2021/06/15 03:43:36;;;;;;;0.40;0.20;;;;;;;14.89;99.06;100430.31;5035300;28;20452;-53
2021/06/15 03:46:07;;;;;;;0.40;0.20;;;;;;;14.70;98.75;100416.88;5035588;28;20505;-53
2021/06/15 03:48:43;;;;;;;0.40;0.20;;;;;;;14.86;98.27;100422.41;5035397;28;20458;-53
2021/06/15 03:51:16;;;;;;;0.40;0.20;;;;;;;14.79;99.42;100425.34;5035447;28;20604;-53
2021/06/15 03:53:44;;;;;;;0.40;0.20;;;;;;;14.82;100.00;100435.06;5035324;28;20850;-53
2021/06/15 03:56:12;;;;;;;0.40;0.20;;;;;;;15.05;99.65;100426.88;5035387;28;20444;-53
2021/06/15 03:58:39;;;;;;;0.40;0.20;;;;;;;14.96;100.00;100429.97;5009052;28;20513;-54
2021/06/15 04:01:12;;;;;;;0.40;0.20;;;;;;;15.21;98.82;100431.53;5035309;28;20936;-54
2021/06/15 04:03:40;;;;;;;0.40;0.20;;;;;;;15.02;99.51;100431.50;5035415;28;20896;-54
2021/06/15 04:06:09;;;;;;;0.40;0.20;;;;;;;14.97;99.38;100439.75;5031468;28;20451;-53
2021/06/15 04:08:37;;;;;;;0.40;0.20;;;;;;;15.04;99.58;100435.84;5050590;28;20456;-54
2021/06/15 04:11:06;;;;;;;0.63;0.63;;;;;;;15.24;98.90;100440.31;5021051;28;20900;-54
2021/06/15 04:13:35;;;;;;;0.40;0.20;;;;;;;15.14;100.00;100440.81;5034974;28;20505;-54
2021/06/15 04:16:03;;;;;;;0.40;0.20;;;;;;;15.24;99.18;100443.00;5030625;28;20467;-54
2021/06/15 04:18:34;;;;;;;0.40;0.20;;;;;;;15.30;99.40;100447.19;5024790;28;20455;-54
2021/06/15 04:21:06;;;;;;;0.40;0.20;;;;;;;15.33;100.00;100450.59;5033983;28;20448;-54
2021/06/15 04:23:40;;;;;;;0.40;0.20;;;;;;;15.37;100.00;100449.53;5034038;28;20454;-54
2021/06/15 04:26:08;;;;;;;0.40;0.30;;;;;;;15.46;100.00;100444.69;5033805;28;20500;-54
2021/06/15 04:28:35;;;;;;;0.40;0.20;;;;;;;15.62;99.94;100449.31;5033994;28;20950;-53
2021/06/15 04:31:02;;;;;;;0.40;0.20;;;;;;;15.82;98.98;100445.69;5033820;28;20999;-54
2021/06/15 04:33:31;;;;;;;0.40;0.20;;;;;;;16.21;97.14;100442.00;5020869;28;20452;-54
2021/06/15 04:36:01;;;;;;;0.40;0.20;;;;;;;16.70;94.45;100440.44;5024428;28;20527;-54
2021/06/15 04:38:44;;;;;;;0.40;0.20;;;;;;;17.13;92.51;100446.22;5033743;28;20510;-54
2021/06/15 04:41:39;;;;;;;0.40;0.20;;;;;;;17.38;91.44;100449.34;5034030;28;20566;-54
2021/06/15 04:44:12;;;;;;;0.50;0.30;;;;;;;17.36;91.02;100450.38;5007140;28;21000;-54
2021/06/15 04:47:11;;;;;;;0.40;0.20;;;;;;;17.46;90.49;100451.63;5033747;28;20514;-54
2021/06/15 04:49:45;;;;;;;0.40;0.20;;;;;;;17.81;88.90;100457.78;5024768;28;20452;-53
2021/06/15 04:52:14;;;;;;;0.40;0.20;;;;;;;17.98;87.46;100460.41;5033717;28;20488;-53
2021/06/15 04:54:47;;;;;;;0.40;0.20;;;;;;;17.98;87.07;100462.22;5033473;28;20472;-53
2021/06/15 04:57:19;;;;;;;0.40;0.20;;;;;;;18.31;84.79;100462.97;5034233;28;20511;-53
2021/06/15 04:59:48;;;;;;;0.40;0.20;;;;;;;18.55;84.32;100466.06;5033348;28;20904;-54
2021/06/15 05:02:19;;;;;;;0.40;0.20;;;;;;;18.77;83.79;100464.81;5033667;28;20448;-53
2021/06/15 05:04:48;;;;;;;0.40;0.20;;;;;;;18.95;83.37;100466.44;5030180;28;20530;-53
2021/06/15 05:07:18;;;;;;;0.50;0.50;;;;;;;18.99;83.61;100470.66;5033030;28;20943;-54
2021/06/15 05:09:51;;;;;;;0.43;0.27;;;;;;;19.14;83.16;100469.72;5028591;28;20503;-53
2021/06/15 05:12:21;;;;;;;0.50;0.50;;;;;;;18.99;83.23;100469.81;5013917;28;20562;-53
2021/06/15 05:14:49;;;;;;;0.40;0.20;;;;;;;19.37;82.73;100476.41;5033717;28;20474;-53
2021/06/15 05:17:20;;;;;;;0.60;0.50;;;;;;;19.63;81.55;100472.13;5033481;28;20952;-53
2021/06/15 05:19:47;;;;;;;0.40;0.20;;;;;;;19.48;80.95;100475.75;5033832;28;20444;-53
2021/06/15 05:22:27;;;;;;;0.40;0.20;;;;;;;19.68;81.14;100478.09;5034057;28;20510;-53
2021/06/15 05:24:59;;;;;;;0.40;0.20;;;;;;;19.77;82.01;100482.91;5033806;28;20472;-53
2021/06/15 05:27:28;;;;;;;1.27;1.20;;;;;;;20.02;79.73;100484.03;5032145;28;20522;-53
2021/06/15 05:29:55;;;;;;;0.50;0.30;;;;;;;20.12;80.70;100485.16;5033628;28;20452;-54
2021/06/15 05:32:29;;;;;;;0.50;0.30;;;;;;;19.97;80.07;100484.31;5033259;28;21028;-53
2021/06/15 05:34:56;;;;;;;0.40;0.20;;;;;;;20.15;79.29;100487.66;5024946;28;20465;-53
2021/06/15 05:37:23;;;;;;;0.40;0.20;;;;;;;20.32;79.16;100494.66;5032003;28;20455;-53
2021/06/15 05:39:50;;;;;;;0.70;0.70;;;;;;;20.00;79.26;100486.81;5033483;28;20448;-53
2021/06/15 05:42:17;;;;;;;0.50;0.33;;;;;;;20.60;77.16;100488.31;5033096;28;20801;-53
2021/06/15 05:44:44;;;;;;;0.50;0.40;;;;;;;20.87;76.08;100486.47;5013500;28;20527;-53
2021/06/15 05:47:11;;;;;;;0.50;0.40;;;;;;;20.88;76.34;100484.63;5015746;28;20852;-53
2021/06/15 05:49:37;;;;;;;0.50;0.30;;;;;;;21.30;73.76;100494.34;5010398;28;20453;-53
2021/06/15 05:52:07;;;;;;;1.17;1.07;;;;;;;21.36;72.82;100484.91;5015622;28;20524;-54
2021/06/15 05:54:35;;;;;;;0.50;0.20;;;;;;;21.71;71.81;100486.00;5013348;28;20468;-54
2021/06/15 05:57:03;;;;;;;1.40;1.40;;;;;;;21.72;71.86;100493.16;5013547;28;20453;-53
2021/06/15 05:59:30;;;;;;;0.50;0.40;;;;;;;21.38;73.03;100493.78;5014951;28;20939;-53
2021/06/15 06:01:57;;;;;;;0.50;0.30;;;;;;;21.45;73.95;100490.56;5016884;28;20433;-54
2021/06/15 06:04:30;;;;;;;0.50;0.20;;;;;;;21.27;73.96;100492.72;5013781;28;20860;-55
2021/06/15 06:09:42;;;;;;;2.10;1.37;;;;;;;21.35;72.94;100494.88;5015490;28;20491;-53
2021/06/15 06:12:10;;;;;;;0.47;0.20;;;;;;;21.46;73.88;100492.28;5014688;28;20542;-53
2021/06/15 06:14:37;;;;;;;0.50;0.20;;;;;;;21.57;73.92;100488.81;5018306;28;20461;-54
2021/06/15 06:17:07;;;;;;;0.87;0.77;;;;;;;22.06;72.48;100486.16;5013489;28;20499;-53
2021/06/15 06:19:34;;;;;;;0.50;0.20;;;;;;;22.41;71.98;100493.56;5018396;28;20433;-54
2021/06/15 06:22:00;;;;;;;0.50;0.20;;;;;;;22.39;71.22;100498.22;5014704;28;20437;-54
2021/06/15 06:24:27;;;;;;;0.50;0.20;;;;;;;22.09;71.78;100495.94;5016593;28;20480;-53
2021/06/15 06:26:54;;;;;;;9.07;2.77;;;;;;;22.59;71.97;100497.56;5017927;28;20476;-53
2021/06/15 06:29:21;;;;;;;0.50;0.20;;;;;;;22.88;70.05;100508.09;5013615;28;20948;-55
2021/06/15 06:31:48;;;;;;;1.60;0.90;;;;;;;22.87;69.40;100503.66;5013951;28;20504;-54
2021/06/15 06:34:15;;;;;;;0.50;0.20;;;;;;;22.74;68.82;100503.69;5017532;28;20544;-53
2021/06/15 06:36:42;;;;;;;0.50;0.20;;;;;;;22.71;70.78;100499.38;5025965;28;20498;-55
2021/06/15 06:39:09;;;;;;;0.50;0.30;;;;;;;23.24;69.22;100499.84;5032052;28;20510;-54
2021/06/15 06:41:37;;;;;;;0.50;0.20;;;;;;;22.96;69.35;100498.41;5028533;28;20452;-58
2021/06/15 06:44:04;;;;;;;0.50;0.30;;;;;;;23.57;67.67;100507.22;5015038;28;20491;-53
2021/06/15 06:46:31;;;;;;;0.50;0.20;;;;;;;23.97;65.38;100514.88;5022478;28;20509;-55
2021/06/15 06:48:58;;;;;;;0.60;0.50;;;;;;;23.74;66.40;100500.44;5017665;28;20822;-54
2021/06/15 06:51:25;;;;;;;1.10;0.60;;;;;;;24.26;65.96;100498.94;5009375;28;20619;-54
2021/06/15 06:53:52;;;;;;;0.50;0.40;;;;;;;24.05;65.61;100504.25;5018389;28;20492;-55
2021/06/15 06:56:19;;;;;;;0.50;0.20;;;;;;;23.68;67.30;100500.91;5010873;28;20460;-55
2021/06/15 06:58:47;;;;;;;0.50;0.30;;;;;;;24.10;67.01;100491.16;5008227;28;20507;-55
2021/06/15 07:01:14;;;;;;;0.50;0.23;;;;;;;24.21;65.69;100490.28;5009759;28;20452;-55
2021/06/15 07:03:41;;;;;;;0.50;0.20;;;;;;;24.50;64.40;100486.03;5008712;28;20558;-55
2021/06/15 07:06:08;;;;;;;0.50;0.30;;;;;;;24.03;66.42;100481.78;5014085;28;20457;-55
2021/06/15 07:08:34;;;;;;;0.50;0.20;;;;;;;24.15;66.05;100482.66;5036514;28;20972;-55
2021/06/15 07:11:01;;;;;;;0.50;0.30;;;;;;;24.17;66.72;100480.66;5014098;28;20459;-55
2021/06/15 07:13:28;;;;;;;0.60;0.30;;;;;;;24.35;66.61;100483.75;5023309;28;20474;-55
2021/06/15 07:15:55;;;;;;;3.20;0.77;;;;;;;24.36;65.87;100489.03;5016213;28;20455;-55
2021/06/15 07:18:21;;;;;;;0.50;0.30;;;;;;;24.55;65.07;100479.38;5011534;28;20963;-55
2021/06/15 07:20:48;;;;;;;0.50;0.50;;;;;;;24.55;64.27;100479.38;5017300;28;20505;-55
2021/06/15 07:23:15;;;;;;;7.27;0.97;;;;;;;24.66;63.79;100472.00;5013126;28;20570;-55
2021/06/15 07:25:42;;;;;;;0.50;0.20;;;;;;;24.75;64.41;100473.97;5012689;28;20472;-55
2021/06/15 07:28:09;;;;;;;0.70;0.70;;;;;;;24.65;63.86;100469.44;5013522;28;20494;-56
2021/06/15 07:30:36;;;;;;;0.50;0.30;;;;;;;25.02;63.57;100473.50;5013457;28;20497;-54
2021/06/15 07:33:12;;;;;;;0.50;0.37;;;;;;;24.77;62.73;100471.13;5016026;28;20842;-54
2021/06/15 07:35:39;;;;;;;0.53;0.37;;;;;;;24.82;62.98;100468.88;5024377;28;20920;-54
2021/06/15 07:38:06;;;;;;;2.10;2.00;;;;;;;24.94;62.12;100462.38;5032145;28;20455;-55
2021/06/15 07:40:33;;;;;;;0.50;0.30;;;;;;;25.21;62.06;100463.72;5032934;28;20451;-55
2021/06/15 07:43:00;;;;;;;2.67;2.57;;;;;;;25.39;62.19;100473.91;5030930;28;20956;-55
2021/06/15 07:45:29;;;;;;;0.50;0.30;;;;;;;25.31;61.68;100459.22;5032940;28;20483;-55
2021/06/15 07:47:57;;;;;;;0.50;0.30;;;;;;;25.20;62.63;100468.31;5028890;28;20956;-55
2021/06/15 07:50:24;;;;;;;0.60;0.43;;;;;;;25.94;60.86;100469.03;5033186;28;20717;-56
2021/06/15 07:52:51;;;;;;;0.50;0.30;;;;;;;26.01;60.78;100471.19;5033761;28;20549;-55
2021/06/15 07:55:18;;;;;;;0.50;0.30;;;;;;;26.00;61.09;100475.78;5007196;28;20498;-56
2021/06/15 07:57:47;;;;;;;0.50;0.30;;;;;;;26.09;60.72;100483.13;5033385;28;20451;-56
2021/06/15 08:00:16;;;;;;;0.60;0.33;;;;;;;26.05;60.97;100473.53;5022513;28;20475;-54
2021/06/15 08:02:47;;;;;;;0.50;0.30;;;;;;;26.21;60.05;100479.28;5033422;28;20467;-55
2021/06/15 08:05:14;;;;;;;0.60;0.60;;;;;;;26.29;60.39;100475.84;5030296;28;20842;-54
2021/06/15 08:07:42;;;;;;;0.50;0.40;;;;;;;26.25;59.71;100475.28;5033513;28;20450;-56
2021/06/15 08:10:09;;;;;;;2.00;0.50;;;;;;;26.52;59.79;100466.47;5025281;28;20566;-55
2021/06/15 08:12:37;;;;;;;0.60;0.57;;;;;;;26.41;60.89;100473.91;5016631;28;20496;-56
2021/06/15 08:15:05;;;;;;;0.50;0.20;;;;;;;26.43;60.34;100471.91;5026454;28;21051;-56
2021/06/15 08:17:32;;;;;;;0.50;0.20;;;;;;;26.75;58.41;100466.19;5019757;28;20456;-55
2021/06/15 08:19:59;;;;;;;0.50;0.30;;;;;;;26.80;59.32;100470.22;5029212;28;20848;-55
2021/06/15 08:22:25;;;;;;;0.77;0.70;;;;;;;26.89;58.64;100470.38;5029495;28;20480;-55
2021/06/15 08:24:52;;;;;;;0.50;0.30;;;;;;;26.47;59.98;100465.19;5019810;28;20471;-54
2021/06/15 08:27:19;;;;;;;0.50;0.30;;;;;;;27.19;58.65;100459.31;5017743;28;20479;-56
2021/06/15 08:29:45;;;;;;;0.50;0.30;;;;;;;26.69;58.30;100462.16;5030375;28;20456;-54
2021/06/15 08:32:12;;;;;;;0.67;0.60;;;;;;;26.93;59.17;100474.53;5019168;28;21027;-55
2021/06/15 08:34:39;;;;;;;0.50;0.20;;;;;;;26.80;57.66;100467.47;5018201;28;20985;-55
2021/06/15 08:37:05;;;;;;;0.50;0.20;;;;;;;27.19;56.07;100464.75;5027356;28;20430;-56
2021/06/15 08:39:32;;;;;;;0.50;0.30;;;;;;;27.49;55.84;100460.94;5015742;28;21008;-55
2021/06/15 08:41:59;;;;;;;0.50;0.30;;;;;;;27.49;55.94;100458.22;5026280;28;20456;-55
2021/06/15 08:44:26;;;;;;;0.50;0.30;;;;;;;27.35;56.31;100458.69;5030133;28;20494;-56
2021/06/15 08:46:52;;;;;;;0.60;0.60;;;;;;;27.66;55.83;100459.34;5028798;28;20947;-56
2021/06/15 08:49:19;;;;;;;4.37;1.13;;;;;;;27.85;55.95;100452.94;5030053;28;20430;-56
2021/06/15 08:51:46;;;;;;;0.50;0.30;;;;;;;27.81;55.60;100449.63;5029717;28;20874;-56
2021/06/15 08:54:17;;;;;;;0.50;0.30;;;;;;;27.85;55.94;100450.22;5029612;28;20476;-58
2021/06/15 08:56:46;;;;;;;0.50;0.30;;;;;;;27.41;56.23;100453.50;5029508;28;20992;-55
2021/06/15 08:59:26;;;;;;;0.50;0.40;;;;;;;27.45;56.82;100449.47;5026153;28;20979;-55
2021/06/15 09:02:07;;;;;;;1.43;1.43;;;;;;;27.04;57.85;100450.72;5017715;28;20771;-56
2021/06/15 09:04:37;;;;;;;0.70;0.70;;;;;;;27.72;57.25;100462.34;5026539;28;20464;-56
2021/06/15 09:07:04;;;;;;;0.60;0.50;;;;;;;27.85;56.34;100456.53;5029385;28;20931;-56
2021/06/15 09:09:41;;;;;;;0.50;0.40;;;;;;;28.06;56.50;100450.81;5026254;28;20507;-57
2021/06/15 09:12:10;;;;;;;0.53;0.37;;;;;;;28.32;56.09;100459.16;5008335;28;20541;-56
2021/06/15 09:14:49;;;;;;;0.50;0.40;;;;;;;28.32;56.63;100459.16;5027306;28;20967;-56
2021/06/15 09:17:17;;;;;;;0.50;0.30;;;;;;;28.43;55.27;100445.28;5015914;28;20460;-56
2021/06/15 09:19:45;;;;;;;0.50;0.33;;;;;;;28.57;54.61;100444.75;5029119;28;21004;-56
2021/06/15 09:22:32;;;;;;;0.60;0.50;;;;;;;28.92;52.11;100440.31;5029047;28;20476;-56
2021/06/15 09:25:05;;;;;;;0.50;0.30;;;;;;;28.49;53.02;100449.25;5023770;28;21018;-56
2021/06/15 09:27:36;;;;;;;0.60;0.50;;;;;;;28.09;54.37;100452.38;5028584;28;20510;-56
2021/06/15 09:30:06;;;;;;;0.50;0.30;;;;;;;27.94;54.32;100446.56;5028863;28;20466;-56
2021/06/15 09:32:37;;;;;;;0.60;0.50;;;;;;;28.41;53.02;100446.47;5028644;28;20487;-56
2021/06/15 09:35:22;;;;;;;0.50;0.40;;;;;;;28.73;49.30;100433.09;5019741;28;20537;-57
2021/06/15 09:37:56;;;;;;;0.50;0.30;;;;;;;29.00;49.16;100437.63;5011241;28;20479;-57
2021/06/15 09:40:28;;;;;;;0.50;0.30;;;;;;;28.67;47.10;100446.56;5013037;28;20518;-57
2021/06/15 09:42:58;;;;;;;0.50;0.33;;;;;;;29.00;47.34;100447.72;5028310;28;20505;-57
2021/06/15 09:45:32;;;;;;;0.63;0.63;;;;;;;28.94;47.38;100445.63;5028223;28;20485;-57
2021/06/15 09:48:38;;;;;;;0.50;0.40;;;;;;;28.55;47.84;100441.31;5028118;28;20419;-58
2021/06/15 09:51:11;;;;;;;0.70;0.60;;;;;;;28.82;48.22;100443.09;5012459;28;20941;-56
2021/06/15 09:53:43;;;;;;;0.50;0.30;;;;;;;29.12;48.13;100441.84;5026174;28;20502;-56
2021/06/15 09:56:15;;;;;;;0.77;0.77;;;;;;;28.46;49.17;100444.97;5028483;28;20439;-56
2021/06/15 09:58:56;;;;;;;0.50;0.40;;;;;;;28.74;46.95;100436.69;5043392;28;20963;-56
2021/06/15 10:01:38;;;;;;;0.50;0.30;;;;;;;28.80;44.28;100442.41;5016938;28;20422;-56
2021/06/15 10:04:25;;;;;;;0.53;0.40;;;;;;;29.06;45.79;100439.75;5025299;28;20475;-56
2021/06/15 10:06:57;;;;;;;0.63;0.63;;;;;;;29.57;45.86;100442.66;5005028;28;20431;-56
2021/06/15 10:09:29;;;;;;;0.50;0.30;;;;;;;29.24;45.92;100442.44;5023347;28;20822;-56
2021/06/15 10:11:58;;;;;;;0.50;0.30;;;;;;;29.41;45.33;100441.50;5024140;28;20547;-56
2021/06/15 10:14:26;;;;;;;0.63;0.53;;;;;;;29.50;45.13;100447.94;5014916;28;20570;-57
2021/06/15 10:16:55;;;;;;;0.50;0.30;;;;;;;28.90;43.79;100440.44;5027998;28;20506;-56
2021/06/15 10:19:23;;;;;;;0.50;0.30;;;;;;;29.43;44.65;100442.22;5027780;28;20476;-56
2021/06/15 10:21:50;;;;;;;0.50;0.30;;;;;;;29.69;45.24;100436.75;5027869;28;20879;-56
2021/06/15 10:24:22;;;;;;;0.50;0.30;;;;;;;30.07;45.47;100445.50;5025476;28;20446;-56
2021/06/15 10:26:59;;;;;;;0.50;0.30;;;;;;;29.97;43.12;100440.13;5035000;28;20802;-56
2021/06/15 10:29:27;;;;;;;0.77;0.77;;;;;;;29.97;44.87;100433.78;5027692;28;20462;-56
2021/06/15 10:31:55;;;;;;;0.50;0.30;;;;;;;29.77;44.32;100435.94;5028046;28;21295;-56
2021/06/15 10:34:57;;;;;;;2.70;2.60;;;;;;;28.72;46.18;100442.31;4997670;28;20506;-56
2021/06/15 10:37:37;;;;;;;0.50;0.27;;;;;;;29.49;46.63;100436.13;5019929;28;20526;-56
2021/06/15 10:40:12;;;;;;;0.50;0.30;;;;;;;30.01;45.70;100427.78;5027892;28;20490;-56
2021/06/15 10:42:41;;;;;;;0.50;0.30;;;;;;;30.05;44.48;100431.13;5027556;28;20969;-56
2021/06/15 10:45:15;;;;;;;0.50;0.30;;;;;;;30.82;43.72;100432.63;5025717;28;20533;-56
2021/06/15 10:48:04;;;;;;;0.50;0.30;;;;;;;30.87;43.30;100430.25;5026117;28;20427;-56
2021/06/15 10:50:35;;;;;;;0.50;0.30;;;;;;;30.88;40.63;100423.72;5017045;28;20419;-56
2021/06/15 10:53:02;;;;;;;0.50;0.40;;;;;;;30.20;41.66;100410.25;5030585;28;21082;-56
2021/06/15 10:55:57;;;;;;;0.50;0.30;;;;;;;30.97;39.77;100410.84;5017461;28;20443;-56
2021/06/15 10:58:29;;;;;;;0.50;0.30;;;;;;;29.75;41.53;100413.31;5028029;28;20418;-55
2021/06/15 11:01:12;;;;;;;0.50;0.30;;;;;;;29.53;42.15;100402.91;5021489;28;20802;-56
2021/06/15 11:03:55;;;;;;;0.50;0.30;;;;;;;29.46;42.01;100405.41;5005681;28;20426;-56
2021/06/15 11:06:43;;;;;;;0.50;0.40;;;;;;;29.09;42.54;100402.97;5023580;28;20484;-56
2021/06/15 11:09:14;;;;;;;0.70;0.40;;;;;;;30.07;42.01;100396.16;5031942;28;20492;-56
2021/06/15 11:11:46;;;;;;;0.50;0.30;;;;;;;29.56;41.15;100397.09;5020070;28;20492;-56
2021/06/15 11:14:22;;;;;;;0.60;0.40;;;;;;;30.29;40.97;100402.88;5033663;28;20480;-56
2021/06/15 11:16:51;;;;;;;0.40;0.30;;;;;;;30.42;40.58;100402.38;5013234;28;20423;-57
2021/06/15 11:19:18;;;;;;;0.50;0.30;;;;;;;30.37;40.81;100401.00;5013676;28;20418;-57
2021/06/15 11:21:48;;;;;;;0.50;0.30;;;;;;;30.83;39.96;100404.16;5014355;28;21011;-57
2021/06/15 11:24:54;;;;;;;0.60;0.30;;;;;;;30.33;39.80;100402.38;5012550;28;20448;-57
2021/06/15 11:27:23;;;;;;;0.50;0.40;;;;;;;31.15;39.47;100395.03;5013683;28;20419;-57
2021/06/15 11:29:54;;;;;;;0.63;0.60;;;;;;;30.63;39.86;100395.41;5013651;28;20522;-57
2021/06/15 11:32:22;;;;;;;0.50;0.30;;;;;;;30.85;39.39;100393.03;5016180;28;20479;-57
2021/06/15 11:34:55;;;;;;;1.97;0.90;;;;;;;30.26;41.16;100386.75;5011425;28;20481;-57
2021/06/15 11:37:25;;;;;;;0.50;0.30;;;;;;;30.33;40.22;100385.94;5011291;28;20430;-57
2021/06/15 11:39:52;;;;;;;0.50;0.30;;;;;;;30.53;41.12;100391.06;5012626;28;20438;-57
2021/06/15 11:42:23;;;;;;;0.50;0.30;;;;;;;30.19;40.66;100383.84;5014988;28;20419;-57
2021/06/15 11:45:01;;;;;;;0.50;0.40;;;;;;;30.07;40.69;100380.56;5024633;28;20959;-57
2021/06/15 11:47:57;;;;;;;0.50;0.30;;;;;;;30.16;41.48;100375.09;5031161;28;20443;-57